createdAt,value
2022-09-24T00:01:28.705Z,5.74
2022-09-24T00:04:00.439Z,5.74
2022-09-24T00:06:29.089Z,5.76
2022-09-24T00:08:58.032Z,5.76
2022-09-24T00:11:28.773Z,5.73
2022-09-24T00:13:56.979Z,5.69
2022-09-24T00:16:26.021Z,5.68
2022-09-24T00:18:53.718Z,5.68
2022-09-24T00:21:24.131Z,5.64
2022-09-24T00:23:54.169Z,5.62
2022-09-24T00:26:39.576Z,5.43
2022-09-24T00:29:07.476Z,5.31
2022-09-24T00:31:34.183Z,5.28
2022-09-24T00:34:02.086Z,5.19
2022-09-24T00:36:28.872Z,5.17
2022-09-24T00:38:58.136Z,5.23
2022-09-24T00:41:28.348Z,5.27
2022-09-24T00:43:55.064Z,5.24
2022-09-24T00:46:44.314Z,5.18
2022-09-24T00:49:12.400Z,5.16
2022-09-24T00:51:41.492Z,5.21
2022-09-24T00:54:32.677Z,5.24
2022-09-24T00:57:00.723Z,5.21
2022-09-24T00:59:30.095Z,5.21
2022-09-24T01:01:59.405Z,5.21
2022-09-24T01:04:28.518Z,5.19
2022-09-24T01:06:56.462Z,5.19
2022-09-24T01:09:25.907Z,5.19
2022-09-24T01:11:58.491Z,5.17
2022-09-24T01:14:58.608Z,5.15
2022-09-24T01:17:55.617Z,5.14
2022-09-24T01:20:43.579Z,5.12
2022-09-24T01:23:13.211Z,5.09
2022-09-24T01:25:54.690Z,5.06
2022-09-24T01:28:37.778Z,5.08
2022-09-24T01:31:16.118Z,5.09
2022-09-24T01:33:46.511Z,5.08
2022-09-24T01:36:14.978Z,5.10
2022-09-24T01:38:44.800Z,5.12
2022-09-24T01:41:16.110Z,5.10
2022-09-24T01:43:43.772Z,5.11
2022-09-24T01:46:13.069Z,5.20
2022-09-24T01:48:41.257Z,5.12
2022-09-24T01:51:33.930Z,5.07
2022-09-24T01:54:04.299Z,5.11
2022-09-24T01:56:36.627Z,5.02
2022-09-24T01:59:10.328Z,4.94
2022-09-24T02:01:43.241Z,4.91
2022-09-24T02:04:15.696Z,4.89
2022-09-24T02:06:54.872Z,4.91
2022-09-24T02:09:40.098Z,4.92
2022-09-24T02:12:11.894Z,4.92
2022-09-24T02:14:47.055Z,4.94
2022-09-24T02:17:15.124Z,4.97
2022-09-24T02:19:42.484Z,4.95
2022-09-24T02:22:12.853Z,4.91
2022-09-24T02:24:52.573Z,4.88
2022-09-24T02:27:19.663Z,4.89
2022-09-24T02:29:46.641Z,4.88
2022-09-24T02:32:17.155Z,4.86
2022-09-24T02:34:52.817Z,4.86
2022-09-24T02:37:24.119Z,4.86
2022-09-24T02:39:51.206Z,4.89
2022-09-24T02:42:20.227Z,4.94
2022-09-24T02:44:47.656Z,4.89
2022-09-24T02:47:14.784Z,4.87
2022-09-24T02:49:41.390Z,4.86
2022-09-24T02:52:08.178Z,4.85
2022-09-24T02:54:34.795Z,4.84
2022-09-24T02:57:01.477Z,4.85
2022-09-24T02:59:28.088Z,4.84
2022-09-24T03:01:54.910Z,4.81
2022-09-24T03:04:21.887Z,4.82
2022-09-24T03:06:48.587Z,4.80
2022-09-24T03:09:15.331Z,4.83
2022-09-24T03:11:42.118Z,4.80
2022-09-24T03:14:08.949Z,4.76
2022-09-24T03:16:35.739Z,4.78
2022-09-24T03:19:02.429Z,4.79
2022-09-24T03:21:29.610Z,4.79
2022-09-24T03:23:56.419Z,4.81
2022-09-24T03:26:23.381Z,4.77
2022-09-24T03:28:50.158Z,4.80
2022-09-24T03:31:17.117Z,4.81
2022-09-24T03:33:46.527Z,4.83
2022-09-24T03:36:22.864Z,4.85
2022-09-24T03:38:52.060Z,4.91
2022-09-24T03:41:18.919Z,4.91
2022-09-24T03:43:45.583Z,4.93
2022-09-24T03:46:13.224Z,4.95
2022-09-24T03:48:41.162Z,4.97
2022-09-24T03:51:13.705Z,4.96
2022-09-24T03:53:40.556Z,4.96
2022-09-24T03:56:07.900Z,4.97
2022-09-24T03:58:38.852Z,4.96
2022-09-24T04:01:07.234Z,4.96
2022-09-24T04:03:34.407Z,5.00
2022-09-24T04:06:01.054Z,5.02
2022-09-24T04:08:28.154Z,5.07
2022-09-24T04:10:55.535Z,5.06
2022-09-24T04:13:22.464Z,5.03
2022-09-24T04:15:50.374Z,5.08
2022-09-24T04:18:17.943Z,5.02
2022-09-24T04:20:44.870Z,5.03
2022-09-24T04:23:11.725Z,5.04
2022-09-24T04:25:40.532Z,5.05
2022-09-24T04:28:09.088Z,5.04
2022-09-24T04:30:36.473Z,5.08
2022-09-24T04:33:03.330Z,5.01
2022-09-24T04:35:32.158Z,5.00
2022-09-24T04:38:00.404Z,4.94
2022-09-24T04:40:28.171Z,4.91
2022-09-24T04:42:54.887Z,4.93
2022-09-24T04:45:22.147Z,4.93
2022-09-24T04:47:58.681Z,4.89
2022-09-24T04:50:28.913Z,4.91
2022-09-24T04:52:56.061Z,4.95
2022-09-24T04:55:25.510Z,5.00
2022-09-24T04:57:52.494Z,4.98
2022-09-24T05:00:21.053Z,4.99
2022-09-24T05:02:48.266Z,5.00
2022-09-24T05:05:15.359Z,5.04
2022-09-24T05:07:42.819Z,5.06
2022-09-24T05:10:09.602Z,5.11
2022-09-24T05:12:36.611Z,5.16
2022-09-24T05:15:04.444Z,5.17
2022-09-24T05:17:31.432Z,5.22
2022-09-24T05:19:59.711Z,5.26
2022-09-24T05:22:31.468Z,5.32
2022-09-24T05:24:58.111Z,5.38
2022-09-24T05:27:24.785Z,5.40
2022-09-24T05:29:51.442Z,5.46
2022-09-24T05:32:20.391Z,5.51
2022-09-24T05:34:47.491Z,5.53
2022-09-24T05:37:15.504Z,5.57
2022-09-24T05:39:42.688Z,5.73
2022-09-24T05:42:15.527Z,5.72
2022-09-24T05:44:49.829Z,5.72
2022-09-24T05:47:18.623Z,5.79
2022-09-24T05:49:45.218Z,5.84
2022-09-24T05:52:11.992Z,5.88
2022-09-24T05:54:39.565Z,6.02
2022-09-24T05:57:06.200Z,6.02
2022-09-24T05:59:32.800Z,6.07
2022-09-24T06:01:59.539Z,6.19
2022-09-24T06:04:26.540Z,6.26
2022-09-24T06:06:53.193Z,6.29
2022-09-24T06:09:19.806Z,6.30
2022-09-24T06:11:46.704Z,6.38
2022-09-24T06:14:13.384Z,6.36
2022-09-24T06:16:40.094Z,6.38
2022-09-24T06:19:06.978Z,6.44
2022-09-24T06:21:33.786Z,6.62
2022-09-24T06:24:00.555Z,6.75
2022-09-24T06:26:28.387Z,7.02
2022-09-24T06:28:55.063Z,7.38
2022-09-24T06:31:21.793Z,7.67
2022-09-24T06:33:48.456Z,7.93
2022-09-24T06:36:15.366Z,8.08
2022-09-24T06:38:42.080Z,8.35
2022-09-24T06:41:10.224Z,8.58
2022-09-24T06:43:37.040Z,8.80
2022-09-24T06:46:04.981Z,9.07
2022-09-24T06:48:31.944Z,9.32
2022-09-24T06:50:58.872Z,9.42
2022-09-24T06:53:25.853Z,9.27
2022-09-24T06:55:55.893Z,9.22
2022-09-24T06:58:23.686Z,9.01
2022-09-24T07:00:55.390Z,8.96
2022-09-24T07:03:22.386Z,9.16
2022-09-24T07:05:49.516Z,9.13
2022-09-24T07:08:17.485Z,9.09
2022-09-24T07:10:45.725Z,9.44
2022-09-24T07:13:13.953Z,9.67
2022-09-24T07:15:42.240Z,9.74
2022-09-24T07:18:09.527Z,10.07
2022-09-24T07:20:39.065Z,10.40
2022-09-24T07:23:07.945Z,10.75
2022-09-24T07:25:35.728Z,10.99
2022-09-24T07:28:10.991Z,11.18
2022-09-24T07:30:38.609Z,11.25
2022-09-24T07:33:07.437Z,11.25
2022-09-24T07:35:37.233Z,11.41
2022-09-24T07:38:06.574Z,11.74
2022-09-24T07:40:33.814Z,12.01
2022-09-24T07:43:00.854Z,12.28
2022-09-24T07:45:29.729Z,12.56
2022-09-24T07:48:04.630Z,12.79
2022-09-24T07:50:34.052Z,12.93
2022-09-24T07:53:00.777Z,13.12
2022-09-24T07:55:27.582Z,13.26
2022-09-24T07:57:55.727Z,13.39
2022-09-24T08:00:24.262Z,13.34
2022-09-24T08:02:53.257Z,13.28
2022-09-24T08:05:19.945Z,13.34
2022-09-24T08:07:53.980Z,13.51
2022-09-24T08:10:21.252Z,13.51
2022-09-24T08:12:48.074Z,13.86
2022-09-24T08:15:15.950Z,14.06
2022-09-24T08:17:43.097Z,14.20
2022-09-24T08:20:10.699Z,14.14
2022-09-24T08:22:37.339Z,14.08
2022-09-24T08:25:04.940Z,14.14
2022-09-24T08:27:33.106Z,14.40
2022-09-24T08:30:00.746Z,14.68
2022-09-24T08:32:29.301Z,14.73
2022-09-24T08:34:55.968Z,14.79
2022-09-24T08:37:22.722Z,14.93
2022-09-24T08:39:49.358Z,14.89
2022-09-24T08:42:36.718Z,15.02
2022-09-24T08:45:24.045Z,15.06
2022-09-24T08:48:09.054Z,14.70
2022-09-24T08:50:39.620Z,14.71
2022-09-24T08:53:14.963Z,14.76
2022-09-24T08:55:47.441Z,14.70
2022-09-24T08:58:17.124Z,14.86
2022-09-24T09:01:06.848Z,14.80
2022-09-24T09:03:33.425Z,14.63
2022-09-24T09:06:30.090Z,14.49
2022-09-24T09:09:11.381Z,14.41
2022-09-24T09:11:39.882Z,14.36
2022-09-24T09:14:42.438Z,14.34
2022-09-24T09:17:52.477Z,14.29
2022-09-24T09:20:24.464Z,14.29
2022-09-24T09:22:53.508Z,14.36
2022-09-24T09:25:28.467Z,14.43
2022-09-24T09:28:01.248Z,14.53
2022-09-24T09:30:38.156Z,14.78
2022-09-24T09:33:27.305Z,14.89
2022-09-24T09:36:21.350Z,15.02
2022-09-24T09:38:53.948Z,14.88
2022-09-24T09:41:29.445Z,14.77
2022-09-24T09:44:14.132Z,14.84
2022-09-24T09:46:51.395Z,14.97
2022-09-24T09:49:18.160Z,14.94
2022-09-24T09:51:48.915Z,15.29
2022-09-24T09:54:15.535Z,15.60
2022-09-24T09:56:48.727Z,15.83
2022-09-24T09:59:27.156Z,16.21
2022-09-24T10:01:56.651Z,16.26
2022-09-24T10:04:35.756Z,16.49
2022-09-24T10:07:16.997Z,16.39
2022-09-24T10:09:45.860Z,16.55
2022-09-24T10:12:22.727Z,16.70
2022-09-24T10:15:16.710Z,16.97
2022-09-24T10:17:45.408Z,16.76
2022-09-24T10:20:31.448Z,16.77
2022-09-24T10:23:02.491Z,16.91
2022-09-24T10:25:31.362Z,16.93
2022-09-24T10:28:25.836Z,16.84
2022-09-24T10:31:01.362Z,16.90
2022-09-24T10:33:40.027Z,16.97
2022-09-24T10:36:14.900Z,16.92
2022-09-24T10:38:41.713Z,17.04
2022-09-24T10:41:34.514Z,17.34
2022-09-24T10:44:06.337Z,17.48
2022-09-24T10:46:40.502Z,17.35
2022-09-24T10:49:27.586Z,17.48
2022-09-24T10:52:01.445Z,17.72
2022-09-24T10:54:34.501Z,17.55
2022-09-24T10:57:13.356Z,17.49
2022-09-24T10:59:56.608Z,17.58
2022-09-24T11:03:00.298Z,17.56
2022-09-24T11:05:52.412Z,17.67
2022-09-24T11:08:47.847Z,17.73
2022-09-24T11:11:40.242Z,17.72
2022-09-24T11:14:09.933Z,17.37
2022-09-24T11:16:42.758Z,17.57
2022-09-24T11:19:37.527Z,17.41
2022-09-24T11:22:17.299Z,17.39
2022-09-24T11:25:01.964Z,17.49
2022-09-24T11:27:44.615Z,17.55
2022-09-24T11:30:24.944Z,17.50
2022-09-24T11:33:07.242Z,17.57
2022-09-24T11:36:00.911Z,17.60
2022-09-24T11:38:33.418Z,17.57
2022-09-24T11:41:27.994Z,17.76
2022-09-24T11:44:17.617Z,17.77
2022-09-24T11:46:56.697Z,17.70
2022-09-24T11:49:55.379Z,17.58
2022-09-24T11:52:51.133Z,17.54
2022-09-24T11:55:20.407Z,17.38
2022-09-24T11:58:19.221Z,17.40
2022-09-24T12:00:56.245Z,17.34
2022-09-24T12:03:46.530Z,17.33
2022-09-24T12:06:22.205Z,17.31
2022-09-24T12:08:58.687Z,17.33
2022-09-24T12:11:33.307Z,17.34
2022-09-24T12:14:22.417Z,17.45
2022-09-24T12:16:55.549Z,17.55
2022-09-24T12:19:35.618Z,17.65
2022-09-24T12:22:04.201Z,17.70
2022-09-24T12:24:36.429Z,17.60
2022-09-24T12:27:35.437Z,17.44
2022-09-24T12:30:58.542Z,17.46
2022-09-24T12:33:40.053Z,17.34
2022-09-24T12:36:17.375Z,17.39
2022-09-24T12:38:55.375Z,17.50
2022-09-24T12:41:44.823Z,17.39
2022-09-24T12:44:11.499Z,17.41
2022-09-24T12:46:48.512Z,17.48
2022-09-24T12:49:32.463Z,17.48
2022-09-24T12:52:15.746Z,17.44
2022-09-24T12:54:44.668Z,17.44
2022-09-24T12:57:25.190Z,17.33
2022-09-24T13:00:04.007Z,17.43
2022-09-24T13:02:44.320Z,17.44
2022-09-24T13:05:17.502Z,17.32
2022-09-24T13:07:57.036Z,17.33
2022-09-24T13:10:27.637Z,17.41
2022-09-24T13:12:55.764Z,17.33
2022-09-24T13:15:32.668Z,17.22
2022-09-24T13:18:04.486Z,17.15
2022-09-24T13:20:32.970Z,17.05
2022-09-24T13:23:20.504Z,16.99
2022-09-24T13:26:09.558Z,17.03
2022-09-24T13:28:48.619Z,17.07
2022-09-24T13:31:21.732Z,17.09
2022-09-24T13:34:15.903Z,17.06
2022-09-24T13:37:02.115Z,17.10
2022-09-24T13:39:46.385Z,17.01
2022-09-24T13:42:54.802Z,17.02
2022-09-24T13:45:23.609Z,16.90
2022-09-24T13:47:55.565Z,16.95
2022-09-24T13:50:40.398Z,16.99
2022-09-24T13:53:17.242Z,16.90
2022-09-24T13:55:53.849Z,16.97
2022-09-24T13:58:31.446Z,16.93
2022-09-24T14:01:02.081Z,17.00
2022-09-24T14:03:34.694Z,16.94
2022-09-24T14:06:02.619Z,16.91
2022-09-24T14:08:33.224Z,16.99
2022-09-24T14:11:13.308Z,16.95
2022-09-24T14:13:46.240Z,16.95
2022-09-24T14:16:19.131Z,17.05
2022-09-24T14:18:46.453Z,17.04
2022-09-24T14:21:32.831Z,17.00
2022-09-24T14:24:18.108Z,16.97
2022-09-24T14:26:57.227Z,17.04
2022-09-24T14:29:30.097Z,16.97
2022-09-24T14:32:02.776Z,16.94
2022-09-24T14:34:40.654Z,16.86
2022-09-24T14:37:20.570Z,16.79
2022-09-24T14:39:51.973Z,16.87
2022-09-24T14:42:27.601Z,16.91
2022-09-24T14:44:55.449Z,16.90
2022-09-24T14:47:24.867Z,16.79
2022-09-24T14:49:51.705Z,16.72
2022-09-24T14:52:33.123Z,16.67
2022-09-24T14:55:22.128Z,16.61
2022-09-24T14:57:55.306Z,16.57
2022-09-24T15:00:27.419Z,16.52
2022-09-24T15:02:58.882Z,16.44
2022-09-24T15:05:27.783Z,16.48
2022-09-24T15:08:11.792Z,16.41
2022-09-24T15:10:40.075Z,16.41
2022-09-24T15:13:22.202Z,16.40
2022-09-24T15:15:48.896Z,16.35
2022-09-24T15:18:18.690Z,16.35
2022-09-24T15:20:45.387Z,16.32
2022-09-24T15:23:12.031Z,16.31
2022-09-24T15:25:39.553Z,16.38
2022-09-24T15:28:11.483Z,16.30
2022-09-24T15:30:39.528Z,16.25
2022-09-24T15:33:15.089Z,16.20
2022-09-24T15:35:41.703Z,16.15
2022-09-24T15:38:16.881Z,16.06
2022-09-24T15:40:44.109Z,15.98
2022-09-24T15:43:25.078Z,15.92
2022-09-24T15:45:52.181Z,15.92
2022-09-24T15:48:19.087Z,15.85
2022-09-24T15:50:47.489Z,15.82
2022-09-24T15:53:26.192Z,15.77
2022-09-24T15:55:55.798Z,15.73
2022-09-24T15:58:23.963Z,15.73
2022-09-24T16:00:51.560Z,15.64
2022-09-24T16:03:25.223Z,15.59
2022-09-24T16:05:52.300Z,15.56
2022-09-24T16:08:19.429Z,15.52
2022-09-24T16:10:47.170Z,15.49
2022-09-24T16:13:15.333Z,15.37
2022-09-24T16:15:42.316Z,15.30
2022-09-24T16:18:14.414Z,15.25
2022-09-24T16:20:41.443Z,15.18
2022-09-24T16:23:14.410Z,15.14
2022-09-24T16:26:02.111Z,15.07
2022-09-24T16:28:29.002Z,14.99
2022-09-24T16:30:56.141Z,14.94
2022-09-24T16:33:23.180Z,14.90
2022-09-24T16:35:49.917Z,14.86
2022-09-24T16:38:22.524Z,14.78
2022-09-24T16:40:52.198Z,14.67
2022-09-24T16:43:19.027Z,14.59
2022-09-24T16:45:45.633Z,14.51
2022-09-24T16:48:13.736Z,14.45
2022-09-24T16:50:40.350Z,14.41
2022-09-24T16:53:07.022Z,14.40
2022-09-24T16:55:33.781Z,14.36
2022-09-24T16:58:00.570Z,14.29
2022-09-24T17:00:27.190Z,14.17
2022-09-24T17:02:53.913Z,14.09
2022-09-24T17:05:20.669Z,14.03
2022-09-24T17:07:47.279Z,13.93
2022-09-24T17:10:13.950Z,13.78
2022-09-24T17:12:42.532Z,13.74
2022-09-24T17:15:09.484Z,13.71
2022-09-24T17:17:44.343Z,13.65
2022-09-24T17:20:12.560Z,13.62
2022-09-24T17:22:39.562Z,13.60
2022-09-24T17:25:07.165Z,13.58
2022-09-24T17:27:35.147Z,13.54
2022-09-24T17:30:02.854Z,13.50
2022-09-24T17:32:29.645Z,13.45
2022-09-24T17:34:56.613Z,13.40
2022-09-24T17:37:23.505Z,13.36
2022-09-24T17:39:50.314Z,13.26
2022-09-24T17:42:17.001Z,13.22
2022-09-24T17:44:44.199Z,13.12
2022-09-24T17:47:10.873Z,13.11
2022-09-24T17:49:37.777Z,13.05
2022-09-24T17:52:04.681Z,13.01
2022-09-24T17:54:31.305Z,12.96
2022-09-24T17:56:58.088Z,12.95
2022-09-24T17:59:26.959Z,12.92
2022-09-24T18:01:54.115Z,12.89
2022-09-24T18:04:21.662Z,12.82
2022-09-24T18:06:49.527Z,12.77
2022-09-24T18:09:17.447Z,12.76
2022-09-24T18:11:49.219Z,12.70
2022-09-24T18:14:19.411Z,12.66
2022-09-24T18:16:46.068Z,12.66
2022-09-24T18:19:15.107Z,12.56
2022-09-24T18:21:41.747Z,12.49
2022-09-24T18:24:09.708Z,12.46
2022-09-24T18:26:39.365Z,12.37
2022-09-24T18:29:11.789Z,12.32
2022-09-24T18:31:39.256Z,12.26
2022-09-24T18:34:07.914Z,12.17
2022-09-24T18:36:37.076Z,12.12
2022-09-24T18:39:07.398Z,12.06
2022-09-24T18:41:36.253Z,11.96
2022-09-24T18:44:04.453Z,11.82
2022-09-24T18:46:33.087Z,11.73
2022-09-24T18:49:00.782Z,11.67
2022-09-24T18:51:38.022Z,11.65
2022-09-24T18:54:06.275Z,11.62
2022-09-24T18:56:33.803Z,11.56
2022-09-24T18:59:07.164Z,11.48
2022-09-24T19:01:37.113Z,11.44
2022-09-24T19:04:04.542Z,11.36
2022-09-24T19:06:34.713Z,11.31
2022-09-24T19:09:01.373Z,11.24
2022-09-24T19:11:31.542Z,11.18
2022-09-24T19:13:58.792Z,11.07
2022-09-24T19:16:25.597Z,11.01
2022-09-24T19:18:53.716Z,11.00
2022-09-24T19:21:23.102Z,11.02
2022-09-24T19:23:52.119Z,10.99
2022-09-24T19:26:23.931Z,10.95
2022-09-24T19:28:51.012Z,10.89
2022-09-24T19:31:22.505Z,10.85
2022-09-24T19:33:50.722Z,10.80
2022-09-24T19:36:18.006Z,10.75
2022-09-24T19:38:45.256Z,10.74
2022-09-24T19:41:26.764Z,10.69
2022-09-24T19:43:57.036Z,10.64
2022-09-24T19:46:25.730Z,10.60
2022-09-24T19:48:54.339Z,10.54
2022-09-24T19:51:23.782Z,10.52
2022-09-24T19:53:54.923Z,10.40
2022-09-24T19:56:24.759Z,10.31
2022-09-24T19:58:53.761Z,10.27
2022-09-24T20:01:22.875Z,10.23
2022-09-24T20:03:51.206Z,10.21
2022-09-24T20:06:23.414Z,10.19
2022-09-24T20:08:50.605Z,10.15
2022-09-24T20:11:20.521Z,10.11
2022-09-24T20:13:52.800Z,10.09
2022-09-24T20:16:23.998Z,10.05
2022-09-24T20:18:55.665Z,10.02
2022-09-24T20:21:23.094Z,9.98
2022-09-24T20:23:49.763Z,9.99
2022-09-24T20:26:35.599Z,9.94
2022-09-24T20:29:03.145Z,9.83
2022-09-24T20:31:30.289Z,9.72
2022-09-24T20:33:57.153Z,9.70
2022-09-24T20:36:24.984Z,9.69
2022-09-24T20:38:53.191Z,9.67
2022-09-24T20:41:22.722Z,9.65
2022-09-24T20:43:50.271Z,9.66
2022-09-24T20:46:24.110Z,9.65
2022-09-24T20:48:58.299Z,9.61
2022-09-24T20:51:27.283Z,9.59
2022-09-24T20:53:54.418Z,9.57
2022-09-24T20:56:21.504Z,9.52
2022-09-24T20:58:53.122Z,9.51
2022-09-24T21:01:21.159Z,9.47
2022-09-24T21:03:50.100Z,9.43
2022-09-24T21:06:18.267Z,9.43
2022-09-24T21:08:46.766Z,9.43
2022-09-24T21:11:16.278Z,9.39
2022-09-24T21:13:45.486Z,9.37
2022-09-24T21:16:12.551Z,9.36
2022-09-24T21:18:44.481Z,9.34
2022-09-24T21:21:14.359Z,9.30
2022-09-24T21:23:42.155Z,9.27
2022-09-24T21:26:22.218Z,9.24
2022-09-24T21:28:55.647Z,9.19
2022-09-24T21:31:25.321Z,9.15
2022-09-24T21:33:53.287Z,9.13
2022-09-24T21:36:22.080Z,9.14
2022-09-24T21:38:54.536Z,9.13
2022-09-24T21:41:23.661Z,9.13
2022-09-24T21:43:50.294Z,9.09
2022-09-24T21:46:17.041Z,9.05
2022-09-24T21:48:43.642Z,8.98
2022-09-24T21:51:20.230Z,8.93
2022-09-24T21:53:50.740Z,8.79
2022-09-24T21:56:19.202Z,8.75
2022-09-24T21:58:50.333Z,8.72
2022-09-24T22:01:28.681Z,8.71
2022-09-24T22:03:59.801Z,8.69
2022-09-24T22:06:28.955Z,8.72
2022-09-24T22:09:04.167Z,8.66
2022-09-24T22:11:31.308Z,8.62
2022-09-24T22:14:01.404Z,8.61
2022-09-24T22:16:29.919Z,8.52
2022-09-24T22:18:57.173Z,8.50
2022-09-24T22:21:23.916Z,8.46
2022-09-24T22:23:50.691Z,8.45
2022-09-24T22:26:18.720Z,8.41
2022-09-24T22:28:45.500Z,8.39
2022-09-24T22:31:16.233Z,8.38
2022-09-24T22:34:01.512Z,8.39
2022-09-24T22:36:28.814Z,8.39
2022-09-24T22:38:56.927Z,8.39
2022-09-24T22:41:25.221Z,8.39
2022-09-24T22:43:52.212Z,8.36
2022-09-24T22:46:19.822Z,8.33
2022-09-24T22:48:47.619Z,8.31
2022-09-24T22:51:14.745Z,8.31
2022-09-24T22:53:41.974Z,8.31
2022-09-24T22:56:20.446Z,8.30
2022-09-24T22:58:55.332Z,8.29
2022-09-24T23:01:23.365Z,8.26
2022-09-24T23:03:51.763Z,8.27
2022-09-24T23:06:20.896Z,8.24
2022-09-24T23:08:48.364Z,8.25
2022-09-24T23:11:16.428Z,8.22
2022-09-24T23:13:45.557Z,8.22
2022-09-24T23:16:18.246Z,8.20
2022-09-24T23:18:47.490Z,8.18
2022-09-24T23:21:17.497Z,8.16
2022-09-24T23:23:44.543Z,8.15
2022-09-24T23:26:17.353Z,8.13
2022-09-24T23:28:45.863Z,8.13
2022-09-24T23:31:14.662Z,8.12
2022-09-24T23:33:42.414Z,8.12
2022-09-24T23:36:11.449Z,8.13
2022-09-24T23:38:38.255Z,8.11
2022-09-24T23:41:05.941Z,8.12
2022-09-24T23:43:33.395Z,8.10
2022-09-24T23:46:01.241Z,8.07
2022-09-24T23:48:28.522Z,8.05
2022-09-24T23:50:55.538Z,8.05
2022-09-24T23:53:22.244Z,8.13
2022-09-24T23:55:49.482Z,8.17
2022-09-24T23:58:18.386Z,8.20
